sensor_id;sensor_type;location;lat;lon;timestamp;P1;durP1;ratioP1;P2;durP2;ratioP2
17953;SDS011;9102;53.548;9.926;2023-05-14T00:01:28;7.03;;;4.00;;
17953;SDS011;9102;53.548;9.926;2023-05-14T00:03:55;8.02;;;4.20;;
17953;SDS011;9102;53.548;9.926;2023-05-14T00:06:21;5.78;;;3.88;;
17953;SDS011;9102;53.548;9.926;2023-05-14T00:08:48;7.80;;;4.28;;
17953;SDS011;9102;53.548;9.926;2023-05-14T00:11:15;6.15;;;4.00;;
17953;SDS011;9102;53.548;9.926;2023-05-14T00:13:42;5.57;;;4.15;;
17953;SDS011;9102;53.548;9.926;2023-05-14T00:16:10;7.07;;;4.60;;
17953;SDS011;9102;53.548;9.926;2023-05-14T00:18:37;6.80;;;4.03;;
17953;SDS011;9102;53.548;9.926;2023-05-14T00:21:03;7.97;;;4.22;;
17953;SDS011;9102;53.548;9.926;2023-05-14T00:23:30;9.15;;;3.97;;
17953;SDS011;9102;53.548;9.926;2023-05-14T00:25:57;11.80;;;4.32;;
17953;SDS011;9102;53.548;9.926;2023-05-14T00:28:25;6.50;;;4.00;;
17953;SDS011;9102;53.548;9.926;2023-05-14T00:30:52;8.88;;;4.10;;
17953;SDS011;9102;53.548;9.926;2023-05-14T00:33:21;8.30;;;5.03;;
17953;SDS011;9102;53.548;9.926;2023-05-14T00:35:48;6.90;;;4.35;;
17953;SDS011;9102;53.548;9.926;2023-05-14T00:38:15;5.90;;;3.85;;
17953;SDS011;9102;53.548;9.926;2023-05-14T00:40:43;11.90;;;4.32;;
17953;SDS011;9102;53.548;9.926;2023-05-14T00:43:15;7.22;;;4.25;;
17953;SDS011;9102;53.548;9.926;2023-05-14T00:45:41;12.32;;;4.60;;
17953;SDS011;9102;53.548;9.926;2023-05-14T00:48:09;6.50;;;3.88;;
17953;SDS011;9102;53.548;9.926;2023-05-14T00:50:37;6.00;;;3.92;;
17953;SDS011;9102;53.548;9.926;2023-05-14T00:53:04;6.63;;;3.67;;
17953;SDS011;9102;53.548;9.926;2023-05-14T00:55:34;6.85;;;4.20;;
17953;SDS011;9102;53.548;9.926;2023-05-14T00:58:01;6.13;;;4.25;;
17953;SDS011;9102;53.548;9.926;2023-05-14T01:00:32;8.77;;;4.20;;
17953;SDS011;9102;53.548;9.926;2023-05-14T01:02:59;9.52;;;4.05;;
17953;SDS011;9102;53.548;9.926;2023-05-14T01:05:27;6.03;;;4.40;;
17953;SDS011;9102;53.548;9.926;2023-05-14T01:08:06;9.68;;;4.10;;
17953;SDS011;9102;53.548;9.926;2023-05-14T01:10:41;7.80;;;4.30;;
17953;SDS011;9102;53.548;9.926;2023-05-14T01:13:15;9.50;;;4.30;;
17953;SDS011;9102;53.548;9.926;2023-05-14T01:15:47;9.10;;;3.90;;
17953;SDS011;9102;53.548;9.926;2023-05-14T01:18:16;10.20;;;4.20;;
17953;SDS011;9102;53.548;9.926;2023-05-14T01:20:44;9.75;;;4.53;;
17953;SDS011;9102;53.548;9.926;2023-05-14T01:23:12;8.80;;;4.07;;
17953;SDS011;9102;53.548;9.926;2023-05-14T01:25:39;9.60;;;4.40;;
17953;SDS011;9102;53.548;9.926;2023-05-14T01:28:08;6.05;;;4.00;;
17953;SDS011;9102;53.548;9.926;2023-05-14T01:30:42;8.88;;;4.07;;
17953;SDS011;9102;53.548;9.926;2023-05-14T01:33:15;7.80;;;4.07;;
17953;SDS011;9102;53.548;9.926;2023-05-14T01:35:43;6.72;;;4.07;;
17953;SDS011;9102;53.548;9.926;2023-05-14T01:38:12;10.68;;;4.35;;
17953;SDS011;9102;53.548;9.926;2023-05-14T01:40:42;5.75;;;4.10;;
17953;SDS011;9102;53.548;9.926;2023-05-14T01:43:10;11.65;;;4.90;;
17953;SDS011;9102;53.548;9.926;2023-05-14T01:45:37;5.75;;;4.10;;
17953;SDS011;9102;53.548;9.926;2023-05-14T01:48:04;7.85;;;4.90;;
17953;SDS011;9102;53.548;9.926;2023-05-14T01:50:31;5.97;;;4.20;;
17953;SDS011;9102;53.548;9.926;2023-05-14T01:52:58;10.15;;;4.68;;
17953;SDS011;9102;53.548;9.926;2023-05-14T01:55:26;7.35;;;4.40;;
17953;SDS011;9102;53.548;9.926;2023-05-14T01:57:53;6.05;;;4.55;;
17953;SDS011;9102;53.548;9.926;2023-05-14T02:00:21;5.40;;;4.03;;
17953;SDS011;9102;53.548;9.926;2023-05-14T02:02:49;5.80;;;4.45;;
17953;SDS011;9102;53.548;9.926;2023-05-14T02:05:16;8.70;;;4.80;;
17953;SDS011;9102;53.548;9.926;2023-05-14T02:07:43;6.63;;;4.47;;
17953;SDS011;9102;53.548;9.926;2023-05-14T02:10:10;10.13;;;4.75;;
17953;SDS011;9102;53.548;9.926;2023-05-14T02:12:38;9.30;;;4.90;;
17953;SDS011;9102;53.548;9.926;2023-05-14T02:15:05;7.72;;;5.00;;
17953;SDS011;9102;53.548;9.926;2023-05-14T02:17:34;7.18;;;5.35;;
17953;SDS011;9102;53.548;9.926;2023-05-14T02:20:02;8.48;;;4.60;;
17953;SDS011;9102;53.548;9.926;2023-05-14T02:22:29;6.88;;;5.03;;
17953;SDS011;9102;53.548;9.926;2023-05-14T02:24:56;8.25;;;4.63;;
17953;SDS011;9102;53.548;9.926;2023-05-14T02:27:23;7.43;;;4.85;;
17953;SDS011;9102;53.548;9.926;2023-05-14T02:29:51;6.07;;;4.57;;
17953;SDS011;9102;53.548;9.926;2023-05-14T02:32:18;6.50;;;4.90;;
17953;SDS011;9102;53.548;9.926;2023-05-14T02:34:45;7.82;;;4.95;;
17953;SDS011;9102;53.548;9.926;2023-05-14T02:37:11;7.18;;;5.13;;
17953;SDS011;9102;53.548;9.926;2023-05-14T02:39:38;8.32;;;4.85;;
17953;SDS011;9102;53.548;9.926;2023-05-14T02:42:05;9.32;;;4.90;;
17953;SDS011;9102;53.548;9.926;2023-05-14T02:44:32;7.38;;;5.30;;
17953;SDS011;9102;53.548;9.926;2023-05-14T02:47:00;9.95;;;5.07;;
17953;SDS011;9102;53.548;9.926;2023-05-14T02:49:27;7.38;;;5.13;;
17953;SDS011;9102;53.548;9.926;2023-05-14T02:51:54;16.17;;;5.85;;
17953;SDS011;9102;53.548;9.926;2023-05-14T02:54:21;10.25;;;4.97;;
17953;SDS011;9102;53.548;9.926;2023-05-14T02:56:48;8.77;;;5.28;;
17953;SDS011;9102;53.548;9.926;2023-05-14T02:59:15;8.90;;;5.22;;
17953;SDS011;9102;53.548;9.926;2023-05-14T03:01:42;7.97;;;5.70;;
17953;SDS011;9102;53.548;9.926;2023-05-14T03:04:10;7.43;;;4.82;;
17953;SDS011;9102;53.548;9.926;2023-05-14T03:06:36;7.65;;;5.30;;
17953;SDS011;9102;53.548;9.926;2023-05-14T03:09:03;7.03;;;5.57;;
17953;SDS011;9102;53.548;9.926;2023-05-14T03:11:31;11.15;;;6.32;;
17953;SDS011;9102;53.548;9.926;2023-05-14T03:13:58;8.23;;;5.20;;
17953;SDS011;9102;53.548;9.926;2023-05-14T03:16:25;7.88;;;5.30;;
17953;SDS011;9102;53.548;9.926;2023-05-14T03:18:52;9.20;;;5.38;;
17953;SDS011;9102;53.548;9.926;2023-05-14T03:21:20;9.50;;;5.40;;
17953;SDS011;9102;53.548;9.926;2023-05-14T03:23:47;6.13;;;4.72;;
17953;SDS011;9102;53.548;9.926;2023-05-14T03:26:13;8.68;;;5.70;;
17953;SDS011;9102;53.548;9.926;2023-05-14T03:28:40;6.25;;;5.07;;
17953;SDS011;9102;53.548;9.926;2023-05-14T03:31:07;9.63;;;5.80;;
17953;SDS011;9102;53.548;9.926;2023-05-14T03:33:34;9.27;;;5.18;;
17953;SDS011;9102;53.548;9.926;2023-05-14T03:36:01;9.60;;;5.63;;
17953;SDS011;9102;53.548;9.926;2023-05-14T03:38:29;12.20;;;6.47;;
17953;SDS011;9102;53.548;9.926;2023-05-14T03:40:56;8.82;;;5.40;;
17953;SDS011;9102;53.548;9.926;2023-05-14T03:43:23;9.43;;;5.07;;
17953;SDS011;9102;53.548;9.926;2023-05-14T03:45:49;11.23;;;5.60;;
17953;SDS011;9102;53.548;9.926;2023-05-14T03:48:17;7.72;;;6.10;;
17953;SDS011;9102;53.548;9.926;2023-05-14T03:50:44;6.63;;;5.50;;
17953;SDS011;9102;53.548;9.926;2023-05-14T03:53:10;11.40;;;6.95;;
17953;SDS011;9102;53.548;9.926;2023-05-14T03:55:39;8.60;;;5.97;;
17953;SDS011;9102;53.548;9.926;2023-05-14T04:00:38;9.57;;;6.22;;
17953;SDS011;9102;53.548;9.926;2023-05-14T04:03:05;8.20;;;6.25;;
17953;SDS011;9102;53.548;9.926;2023-05-14T04:05:32;8.52;;;6.07;;
17953;SDS011;9102;53.548;9.926;2023-05-14T04:07:59;8.82;;;5.90;;
17953;SDS011;9102;53.548;9.926;2023-05-14T04:10:26;7.55;;;5.65;;
17953;SDS011;9102;53.548;9.926;2023-05-14T04:12:55;11.35;;;5.55;;
17953;SDS011;9102;53.548;9.926;2023-05-14T04:15:21;9.13;;;5.65;;
17953;SDS011;9102;53.548;9.926;2023-05-14T04:17:48;10.43;;;6.28;;
17953;SDS011;9102;53.548;9.926;2023-05-14T04:20:15;9.20;;;6.30;;
17953;SDS011;9102;53.548;9.926;2023-05-14T04:22:42;9.73;;;6.28;;
17953;SDS011;9102;53.548;9.926;2023-05-14T04:25:09;7.05;;;5.63;;
17953;SDS011;9102;53.548;9.926;2023-05-14T04:27:36;9.77;;;6.00;;
17953;SDS011;9102;53.548;9.926;2023-05-14T04:30:05;7.07;;;6.18;;
17953;SDS011;9102;53.548;9.926;2023-05-14T04:32:33;8.05;;;6.28;;
17953;SDS011;9102;53.548;9.926;2023-05-14T04:35:00;8.55;;;6.40;;
17953;SDS011;9102;53.548;9.926;2023-05-14T04:37:28;7.13;;;5.50;;
17953;SDS011;9102;53.548;9.926;2023-05-14T04:39:55;7.68;;;5.75;;
17953;SDS011;9102;53.548;9.926;2023-05-14T04:42:21;11.40;;;6.40;;
17953;SDS011;9102;53.548;9.926;2023-05-14T04:44:49;13.55;;;6.60;;
17953;SDS011;9102;53.548;9.926;2023-05-14T04:47:17;10.20;;;6.07;;
17953;SDS011;9102;53.548;9.926;2023-05-14T04:49:45;11.40;;;6.53;;
17953;SDS011;9102;53.548;9.926;2023-05-14T04:52:11;10.50;;;5.70;;
17953;SDS011;9102;53.548;9.926;2023-05-14T04:54:38;8.73;;;5.78;;
17953;SDS011;9102;53.548;9.926;2023-05-14T04:57:05;9.10;;;6.03;;
17953;SDS011;9102;53.548;9.926;2023-05-14T04:59:32;8.32;;;5.78;;
17953;SDS011;9102;53.548;9.926;2023-05-14T05:01:59;8.65;;;5.78;;
17953;SDS011;9102;53.548;9.926;2023-05-14T05:04:27;14.40;;;5.93;;
17953;SDS011;9102;53.548;9.926;2023-05-14T05:06:54;7.97;;;5.88;;
17953;SDS011;9102;53.548;9.926;2023-05-14T05:09:21;7.95;;;5.72;;
17953;SDS011;9102;53.548;9.926;2023-05-14T05:11:47;6.47;;;5.45;;
17953;SDS011;9102;53.548;9.926;2023-05-14T05:14:14;12.73;;;5.95;;
17953;SDS011;9102;53.548;9.926;2023-05-14T05:16:41;9.32;;;5.47;;
17953;SDS011;9102;53.548;9.926;2023-05-14T05:19:08;12.88;;;5.32;;
17953;SDS011;9102;53.548;9.926;2023-05-14T05:21:37;9.13;;;5.93;;
17953;SDS011;9102;53.548;9.926;2023-05-14T05:24:05;9.98;;;5.30;;
17953;SDS011;9102;53.548;9.926;2023-05-14T05:26:32;8.57;;;5.53;;
17953;SDS011;9102;53.548;9.926;2023-05-14T05:29:00;10.93;;;5.63;;
17953;SDS011;9102;53.548;9.926;2023-05-14T05:31:27;9.07;;;5.47;;
17953;SDS011;9102;53.548;9.926;2023-05-14T05:33:55;8.48;;;5.95;;
17953;SDS011;9102;53.548;9.926;2023-05-14T05:36:22;6.72;;;4.93;;
17953;SDS011;9102;53.548;9.926;2023-05-14T05:38:50;10.57;;;5.95;;
17953;SDS011;9102;53.548;9.926;2023-05-14T05:41:17;8.82;;;6.15;;
17953;SDS011;9102;53.548;9.926;2023-05-14T05:43:44;10.57;;;6.28;;
17953;SDS011;9102;53.548;9.926;2023-05-14T05:46:11;9.35;;;6.15;;
17953;SDS011;9102;53.548;9.926;2023-05-14T05:48:37;7.93;;;6.25;;
17953;SDS011;9102;53.548;9.926;2023-05-14T05:51:04;9.88;;;5.38;;
17953;SDS011;9102;53.548;9.926;2023-05-14T05:53:31;8.88;;;6.00;;
17953;SDS011;9102;53.548;9.926;2023-05-14T05:55:59;9.43;;;5.80;;
17953;SDS011;9102;53.548;9.926;2023-05-14T05:58:26;12.45;;;5.78;;
17953;SDS011;9102;53.548;9.926;2023-05-14T06:00:53;9.85;;;5.97;;
17953;SDS011;9102;53.548;9.926;2023-05-14T06:03:21;9.32;;;5.60;;
17953;SDS011;9102;53.548;9.926;2023-05-14T06:05:48;10.02;;;5.88;;
17953;SDS011;9102;53.548;9.926;2023-05-14T06:08:16;6.97;;;5.55;;
17953;SDS011;9102;53.548;9.926;2023-05-14T06:10:43;6.50;;;5.47;;
17953;SDS011;9102;53.548;9.926;2023-05-14T06:13:11;14.75;;;5.95;;
17953;SDS011;9102;53.548;9.926;2023-05-14T06:15:38;10.07;;;5.95;;
17953;SDS011;9102;53.548;9.926;2023-05-14T06:18:05;11.60;;;6.03;;
17953;SDS011;9102;53.548;9.926;2023-05-14T06:20:32;8.13;;;5.65;;
17953;SDS011;9102;53.548;9.926;2023-05-14T06:22:59;8.73;;;5.30;;
17953;SDS011;9102;53.548;9.926;2023-05-14T06:25:26;8.35;;;5.90;;
17953;SDS011;9102;53.548;9.926;2023-05-14T06:27:53;8.20;;;5.93;;
17953;SDS011;9102;53.548;9.926;2023-05-14T06:30:21;10.35;;;6.20;;
17953;SDS011;9102;53.548;9.926;2023-05-14T06:32:48;10.95;;;5.88;;
17953;SDS011;9102;53.548;9.926;2023-05-14T06:35:15;8.02;;;5.53;;
17953;SDS011;9102;53.548;9.926;2023-05-14T06:37:42;9.25;;;5.70;;
17953;SDS011;9102;53.548;9.926;2023-05-14T06:40:10;6.20;;;4.97;;
17953;SDS011;9102;53.548;9.926;2023-05-14T06:42:39;6.68;;;4.90;;
17953;SDS011;9102;53.548;9.926;2023-05-14T06:45:07;15.82;;;6.65;;
17953;SDS011;9102;53.548;9.926;2023-05-14T06:47:35;6.30;;;5.25;;
17953;SDS011;9102;53.548;9.926;2023-05-14T06:50:02;9.43;;;5.00;;
17953;SDS011;9102;53.548;9.926;2023-05-14T06:52:29;6.68;;;5.07;;
17953;SDS011;9102;53.548;9.926;2023-05-14T06:54:56;11.85;;;5.00;;
17953;SDS011;9102;53.548;9.926;2023-05-14T06:57:23;6.30;;;4.70;;
17953;SDS011;9102;53.548;9.926;2023-05-14T06:59:50;5.90;;;4.75;;
17953;SDS011;9102;53.548;9.926;2023-05-14T07:02:16;5.82;;;4.38;;
17953;SDS011;9102;53.548;9.926;2023-05-14T07:04:44;6.47;;;4.72;;
17953;SDS011;9102;53.548;9.926;2023-05-14T07:07:11;8.05;;;4.68;;
17953;SDS011;9102;53.548;9.926;2023-05-14T07:09:41;6.97;;;5.13;;
17953;SDS011;9102;53.548;9.926;2023-05-14T07:12:08;8.95;;;5.05;;
17953;SDS011;9102;53.548;9.926;2023-05-14T07:14:35;8.48;;;4.72;;
17953;SDS011;9102;53.548;9.926;2023-05-14T07:17:02;6.43;;;4.10;;
17953;SDS011;9102;53.548;9.926;2023-05-14T07:19:29;7.68;;;4.13;;
17953;SDS011;9102;53.548;9.926;2023-05-14T07:21:57;7.88;;;3.80;;
17953;SDS011;9102;53.548;9.926;2023-05-14T07:24:27;7.15;;;3.88;;
17953;SDS011;9102;53.548;9.926;2023-05-14T07:26:53;6.63;;;4.20;;
17953;SDS011;9102;53.548;9.926;2023-05-14T07:29:21;7.53;;;3.75;;
17953;SDS011;9102;53.548;9.926;2023-05-14T07:31:49;3.70;;;3.28;;
17953;SDS011;9102;53.548;9.926;2023-05-14T07:34:15;5.50;;;3.25;;
17953;SDS011;9102;53.548;9.926;2023-05-14T07:36:45;6.05;;;3.33;;
17953;SDS011;9102;53.548;9.926;2023-05-14T07:39:14;3.83;;;3.10;;
17953;SDS011;9102;53.548;9.926;2023-05-14T07:41:41;8.13;;;3.30;;
17953;SDS011;9102;53.548;9.926;2023-05-14T07:44:12;7.75;;;3.70;;
17953;SDS011;9102;53.548;9.926;2023-05-14T07:46:42;5.90;;;3.50;;
17953;SDS011;9102;53.548;9.926;2023-05-14T07:49:12;4.05;;;3.47;;
17953;SDS011;9102;53.548;9.926;2023-05-14T07:51:53;5.22;;;3.70;;
17953;SDS011;9102;53.548;9.926;2023-05-14T07:54:21;8.20;;;3.63;;
17953;SDS011;9102;53.548;9.926;2023-05-14T07:56:48;7.80;;;4.03;;
17953;SDS011;9102;53.548;9.926;2023-05-14T07:59:14;5.53;;;3.90;;
17953;SDS011;9102;53.548;9.926;2023-05-14T08:01:41;4.53;;;3.85;;
17953;SDS011;9102;53.548;9.926;2023-05-14T08:04:09;4.65;;;3.20;;
17953;SDS011;9102;53.548;9.926;2023-05-14T08:06:40;8.43;;;4.25;;
17953;SDS011;9102;53.548;9.926;2023-05-14T08:09:11;8.57;;;3.90;;
17953;SDS011;9102;53.548;9.926;2023-05-14T08:11:39;4.65;;;3.40;;
17953;SDS011;9102;53.548;9.926;2023-05-14T08:14:12;6.20;;;3.78;;
17953;SDS011;9102;53.548;9.926;2023-05-14T08:16:39;6.35;;;3.25;;
17953;SDS011;9102;53.548;9.926;2023-05-14T08:19:06;9.88;;;3.30;;
17953;SDS011;9102;53.548;9.926;2023-05-14T08:21:33;7.35;;;3.25;;
17953;SDS011;9102;53.548;9.926;2023-05-14T08:23:59;7.32;;;3.22;;
17953;SDS011;9102;53.548;9.926;2023-05-14T08:26:26;7.10;;;3.63;;
17953;SDS011;9102;53.548;9.926;2023-05-14T08:28:55;7.82;;;3.35;;
17953;SDS011;9102;53.548;9.926;2023-05-14T08:31:22;3.63;;;3.10;;
17953;SDS011;9102;53.548;9.926;2023-05-14T08:33:48;5.53;;;3.47;;
17953;SDS011;9102;53.548;9.926;2023-05-14T08:36:15;6.00;;;3.67;;
17953;SDS011;9102;53.548;9.926;2023-05-14T08:38:42;4.88;;;3.42;;
17953;SDS011;9102;53.548;9.926;2023-05-14T08:41:09;10.00;;;3.40;;
17953;SDS011;9102;53.548;9.926;2023-05-14T08:43:54;5.85;;;3.17;;
17953;SDS011;9102;53.548;9.926;2023-05-14T08:46:36;6.88;;;3.30;;
17953;SDS011;9102;53.548;9.926;2023-05-14T08:49:09;7.63;;;3.20;;
17953;SDS011;9102;53.548;9.926;2023-05-14T08:51:53;7.88;;;3.40;;
17953;SDS011;9102;53.548;9.926;2023-05-14T08:54:20;3.60;;;2.78;;
17953;SDS011;9102;53.548;9.926;2023-05-14T08:56:48;3.72;;;2.53;;
17953;SDS011;9102;53.548;9.926;2023-05-14T08:59:24;7.85;;;3.13;;
17953;SDS011;9102;53.548;9.926;2023-05-14T09:01:55;8.90;;;3.35;;
17953;SDS011;9102;53.548;9.926;2023-05-14T09:04:23;9.70;;;3.28;;
17953;SDS011;9102;53.548;9.926;2023-05-14T09:06:51;7.20;;;2.80;;
17953;SDS011;9102;53.548;9.926;2023-05-14T09:09:19;5.90;;;2.58;;
17953;SDS011;9102;53.548;9.926;2023-05-14T09:11:47;6.20;;;3.28;;
17953;SDS011;9102;53.548;9.926;2023-05-14T09:14:14;6.15;;;2.92;;
17953;SDS011;9102;53.548;9.926;2023-05-14T09:16:45;6.70;;;2.90;;
17953;SDS011;9102;53.548;9.926;2023-05-14T09:19:18;4.93;;;2.78;;
17953;SDS011;9102;53.548;9.926;2023-05-14T09:21:46;6.40;;;2.70;;
17953;SDS011;9102;53.548;9.926;2023-05-14T09:24:18;6.60;;;3.20;;
17953;SDS011;9102;53.548;9.926;2023-05-14T09:26:50;3.78;;;2.83;;
17953;SDS011;9102;53.548;9.926;2023-05-14T09:29:22;4.85;;;2.92;;
17953;SDS011;9102;53.548;9.926;2023-05-14T09:31:54;5.18;;;2.85;;
17953;SDS011;9102;53.548;9.926;2023-05-14T09:34:25;5.57;;;2.70;;
17953;SDS011;9102;53.548;9.926;2023-05-14T09:36:54;4.68;;;3.00;;
17953;SDS011;9102;53.548;9.926;2023-05-14T09:39:22;4.07;;;2.30;;
17953;SDS011;9102;53.548;9.926;2023-05-14T09:41:58;4.50;;;2.75;;
17953;SDS011;9102;53.548;9.926;2023-05-14T09:44:35;5.70;;;2.10;;
17953;SDS011;9102;53.548;9.926;2023-05-14T09:47:12;5.78;;;2.38;;
17953;SDS011;9102;53.548;9.926;2023-05-14T09:49:49;3.15;;;2.38;;
17953;SDS011;9102;53.548;9.926;2023-05-14T09:52:18;4.78;;;2.67;;
17953;SDS011;9102;53.548;9.926;2023-05-14T09:54:48;3.95;;;2.40;;
17953;SDS011;9102;53.548;9.926;2023-05-14T09:57:17;7.70;;;2.70;;
17953;SDS011;9102;53.548;9.926;2023-05-14T09:59:43;5.97;;;2.80;;
17953;SDS011;9102;53.548;9.926;2023-05-14T10:02:14;6.57;;;2.75;;
17953;SDS011;9102;53.548;9.926;2023-05-14T10:04:46;7.15;;;2.50;;
17953;SDS011;9102;53.548;9.926;2023-05-14T10:07:14;3.20;;;2.22;;
17953;SDS011;9102;53.548;9.926;2023-05-14T10:09:44;6.03;;;2.35;;
17953;SDS011;9102;53.548;9.926;2023-05-14T10:12:11;6.75;;;2.55;;
17953;SDS011;9102;53.548;9.926;2023-05-14T10:14:42;4.85;;;2.42;;
17953;SDS011;9102;53.548;9.926;2023-05-14T10:17:18;4.05;;;2.40;;
17953;SDS011;9102;53.548;9.926;2023-05-14T10:19:49;4.75;;;2.33;;
17953;SDS011;9102;53.548;9.926;2023-05-14T10:22:21;4.68;;;2.47;;
17953;SDS011;9102;53.548;9.926;2023-05-14T10:24:48;5.50;;;2.50;;
17953;SDS011;9102;53.548;9.926;2023-05-14T10:27:18;3.90;;;2.70;;
17953;SDS011;9102;53.548;9.926;2023-05-14T10:29:49;5.88;;;2.40;;
17953;SDS011;9102;53.548;9.926;2023-05-14T10:32:20;3.70;;;2.40;;
17953;SDS011;9102;53.548;9.926;2023-05-14T10:34:49;3.88;;;2.50;;
17953;SDS011;9102;53.548;9.926;2023-05-14T10:37:17;4.65;;;2.50;;
17953;SDS011;9102;53.548;9.926;2023-05-14T10:39:46;7.43;;;2.50;;
17953;SDS011;9102;53.548;9.926;2023-05-14T10:42:16;4.93;;;2.85;;
17953;SDS011;9102;53.548;9.926;2023-05-14T10:44:51;3.95;;;2.47;;
17953;SDS011;9102;53.548;9.926;2023-05-14T10:47:21;5.40;;;2.53;;
17953;SDS011;9102;53.548;9.926;2023-05-14T10:49:48;3.80;;;2.80;;
17953;SDS011;9102;53.548;9.926;2023-05-14T10:52:17;2.92;;;2.45;;
17953;SDS011;9102;53.548;9.926;2023-05-14T10:54:47;4.70;;;2.25;;
17953;SDS011;9102;53.548;9.926;2023-05-14T10:57:16;6.35;;;3.50;;
17953;SDS011;9102;53.548;9.926;2023-05-14T10:59:47;3.83;;;2.30;;
17953;SDS011;9102;53.548;9.926;2023-05-14T11:02:22;7.70;;;2.20;;
17953;SDS011;9102;53.548;9.926;2023-05-14T11:04:56;6.85;;;2.53;;
17953;SDS011;9102;53.548;9.926;2023-05-14T11:07:26;6.60;;;3.08;;
17953;SDS011;9102;53.548;9.926;2023-05-14T11:09:59;7.35;;;2.72;;
17953;SDS011;9102;53.548;9.926;2023-05-14T11:12:28;7.97;;;2.85;;
17953;SDS011;9102;53.548;9.926;2023-05-14T11:14:56;6.03;;;2.33;;
17953;SDS011;9102;53.548;9.926;2023-05-14T11:17:26;7.15;;;2.90;;
17953;SDS011;9102;53.548;9.926;2023-05-14T11:19:53;8.85;;;3.20;;
17953;SDS011;9102;53.548;9.926;2023-05-14T11:22:21;7.65;;;3.10;;
17953;SDS011;9102;53.548;9.926;2023-05-14T11:24:48;7.47;;;2.60;;
17953;SDS011;9102;53.548;9.926;2023-05-14T11:27:15;6.00;;;2.60;;
17953;SDS011;9102;53.548;9.926;2023-05-14T11:29:45;5.03;;;2.83;;
17953;SDS011;9102;53.548;9.926;2023-05-14T11:32:13;3.70;;;3.00;;
17953;SDS011;9102;53.548;9.926;2023-05-14T11:34:42;3.72;;;2.63;;
17953;SDS011;9102;53.548;9.926;2023-05-14T11:37:10;6.15;;;2.63;;
17953;SDS011;9102;53.548;9.926;2023-05-14T11:39:38;4.15;;;2.25;;
17953;SDS011;9102;53.548;9.926;2023-05-14T11:42:11;5.22;;;2.50;;
17953;SDS011;9102;53.548;9.926;2023-05-14T11:44:40;6.72;;;3.15;;
17953;SDS011;9102;53.548;9.926;2023-05-14T11:47:09;7.07;;;3.10;;
17953;SDS011;9102;53.548;9.926;2023-05-14T11:49:37;5.82;;;2.70;;
17953;SDS011;9102;53.548;9.926;2023-05-14T11:52:05;5.90;;;2.88;;
17953;SDS011;9102;53.548;9.926;2023-05-14T11:54:34;5.60;;;2.92;;
17953;SDS011;9102;53.548;9.926;2023-05-14T11:57:06;4.05;;;2.85;;
17953;SDS011;9102;53.548;9.926;2023-05-14T11:59:34;3.40;;;2.33;;
17953;SDS011;9102;53.548;9.926;2023-05-14T12:02:02;6.55;;;2.63;;
17953;SDS011;9102;53.548;9.926;2023-05-14T12:04:30;6.82;;;2.90;;
17953;SDS011;9102;53.548;9.926;2023-05-14T12:06:57;6.25;;;2.80;;
17953;SDS011;9102;53.548;9.926;2023-05-14T12:09:27;10.80;;;3.00;;
17953;SDS011;9102;53.548;9.926;2023-05-14T12:11:53;5.53;;;2.88;;
17953;SDS011;9102;53.548;9.926;2023-05-14T12:14:21;8.35;;;3.00;;
17953;SDS011;9102;53.548;9.926;2023-05-14T12:16:49;7.00;;;2.83;;
17953;SDS011;9102;53.548;9.926;2023-05-14T12:19:16;4.65;;;2.63;;
17953;SDS011;9102;53.548;9.926;2023-05-14T12:21:45;4.93;;;2.78;;
17953;SDS011;9102;53.548;9.926;2023-05-14T12:24:15;4.15;;;2.72;;
17953;SDS011;9102;53.548;9.926;2023-05-14T12:26:45;3.38;;;2.45;;
17953;SDS011;9102;53.548;9.926;2023-05-14T12:29:13;5.78;;;2.63;;
17953;SDS011;9102;53.548;9.926;2023-05-14T12:31:44;5.20;;;2.80;;
17953;SDS011;9102;53.548;9.926;2023-05-14T12:34:12;5.00;;;2.72;;
17953;SDS011;9102;53.548;9.926;2023-05-14T12:36:39;8.60;;;2.90;;
17953;SDS011;9102;53.548;9.926;2023-05-14T12:39:06;5.53;;;2.83;;
17953;SDS011;9102;53.548;9.926;2023-05-14T12:41:33;6.05;;;3.10;;
17953;SDS011;9102;53.548;9.926;2023-05-14T12:44:03;5.97;;;2.90;;
17953;SDS011;9102;53.548;9.926;2023-05-14T12:46:30;3.67;;;2.65;;
17953;SDS011;9102;53.548;9.926;2023-05-14T12:48:58;9.70;;;3.30;;
17953;SDS011;9102;53.548;9.926;2023-05-14T12:51:25;6.20;;;2.70;;
17953;SDS011;9102;53.548;9.926;2023-05-14T12:53:52;5.55;;;2.88;;
17953;SDS011;9102;53.548;9.926;2023-05-14T12:56:19;5.05;;;2.95;;
17953;SDS011;9102;53.548;9.926;2023-05-14T12:58:51;4.20;;;3.00;;
17953;SDS011;9102;53.548;9.926;2023-05-14T13:01:21;6.68;;;2.97;;
17953;SDS011;9102;53.548;9.926;2023-05-14T13:03:47;4.97;;;3.00;;
17953;SDS011;9102;53.548;9.926;2023-05-14T13:06:14;6.30;;;2.72;;
17953;SDS011;9102;53.548;9.926;2023-05-14T13:08:42;7.05;;;2.72;;
17953;SDS011;9102;53.548;9.926;2023-05-14T13:11:09;4.63;;;2.88;;
17953;SDS011;9102;53.548;9.926;2023-05-14T13:13:36;7.25;;;3.10;;
17953;SDS011;9102;53.548;9.926;2023-05-14T13:16:03;4.53;;;2.85;;
17953;SDS011;9102;53.548;9.926;2023-05-14T13:18:31;5.60;;;3.10;;
17953;SDS011;9102;53.548;9.926;2023-05-14T13:20:58;8.02;;;2.90;;
17953;SDS011;9102;53.548;9.926;2023-05-14T13:23:28;6.68;;;2.90;;
17953;SDS011;9102;53.548;9.926;2023-05-14T13:25:55;4.60;;;2.80;;
17953;SDS011;9102;53.548;9.926;2023-05-14T13:28:22;5.70;;;3.20;;
17953;SDS011;9102;53.548;9.926;2023-05-14T13:31:02;4.28;;;2.40;;
17953;SDS011;9102;53.548;9.926;2023-05-14T13:33:32;5.30;;;2.50;;
17953;SDS011;9102;53.548;9.926;2023-05-14T13:36:00;8.00;;;2.85;;
17953;SDS011;9102;53.548;9.926;2023-05-14T13:38:27;4.15;;;2.30;;
17953;SDS011;9102;53.548;9.926;2023-05-14T13:40:54;6.45;;;2.70;;
17953;SDS011;9102;53.548;9.926;2023-05-14T13:43:26;5.32;;;2.60;;
17953;SDS011;9102;53.548;9.926;2023-05-14T13:45:53;4.72;;;2.60;;
17953;SDS011;9102;53.548;9.926;2023-05-14T13:48:20;4.72;;;2.58;;
17953;SDS011;9102;53.548;9.926;2023-05-14T13:50:49;6.75;;;2.60;;
17953;SDS011;9102;53.548;9.926;2023-05-14T13:53:16;4.25;;;2.70;;
17953;SDS011;9102;53.548;9.926;2023-05-14T13:55:43;3.60;;;2.42;;
17953;SDS011;9102;53.548;9.926;2023-05-14T13:58:10;7.97;;;2.40;;
17953;SDS011;9102;53.548;9.926;2023-05-14T14:00:37;6.90;;;2.70;;
17953;SDS011;9102;53.548;9.926;2023-05-14T14:03:04;4.07;;;2.50;;
17953;SDS011;9102;53.548;9.926;2023-05-14T14:05:32;4.03;;;2.55;;
17953;SDS011;9102;53.548;9.926;2023-05-14T14:08:01;4.38;;;2.10;;
17953;SDS011;9102;53.548;9.926;2023-05-14T14:10:27;6.50;;;2.42;;
17953;SDS011;9102;53.548;9.926;2023-05-14T14:12:54;5.15;;;2.55;;
17953;SDS011;9102;53.548;9.926;2023-05-14T14:15:21;7.30;;;2.90;;
17953;SDS011;9102;53.548;9.926;2023-05-14T14:17:48;4.60;;;2.50;;
17953;SDS011;9102;53.548;9.926;2023-05-14T14:20:15;4.85;;;2.55;;
17953;SDS011;9102;53.548;9.926;2023-05-14T14:22:42;4.03;;;2.60;;
17953;SDS011;9102;53.548;9.926;2023-05-14T14:25:11;6.32;;;2.22;;
17953;SDS011;9102;53.548;9.926;2023-05-14T14:27:38;4.57;;;2.50;;
17953;SDS011;9102;53.548;9.926;2023-05-14T14:30:05;4.65;;;2.38;;
17953;SDS011;9102;53.548;9.926;2023-05-14T14:32:33;4.35;;;2.80;;
17953;SDS011;9102;53.548;9.926;2023-05-14T14:35:00;3.00;;;2.30;;
17953;SDS011;9102;53.548;9.926;2023-05-14T14:37:27;5.55;;;2.55;;
17953;SDS011;9102;53.548;9.926;2023-05-14T14:39:54;4.88;;;2.80;;
17953;SDS011;9102;53.548;9.926;2023-05-14T14:42:22;5.13;;;2.72;;
17953;SDS011;9102;53.548;9.926;2023-05-14T14:44:49;4.75;;;2.70;;
17953;SDS011;9102;53.548;9.926;2023-05-14T14:47:16;5.95;;;2.75;;
17953;SDS011;9102;53.548;9.926;2023-05-14T14:49:42;6.72;;;2.88;;
17953;SDS011;9102;53.548;9.926;2023-05-14T14:52:09;10.57;;;3.03;;
17953;SDS011;9102;53.548;9.926;2023-05-14T14:54:36;4.97;;;2.90;;
17953;SDS011;9102;53.548;9.926;2023-05-14T14:57:03;8.38;;;3.45;;
17953;SDS011;9102;53.548;9.926;2023-05-14T14:59:33;6.45;;;3.03;;
17953;SDS011;9102;53.548;9.926;2023-05-14T15:02:03;5.97;;;2.83;;
17953;SDS011;9102;53.548;9.926;2023-05-14T15:04:32;9.07;;;2.85;;
17953;SDS011;9102;53.548;9.926;2023-05-14T15:06:59;7.93;;;3.50;;
17953;SDS011;9102;53.548;9.926;2023-05-14T15:09:29;7.38;;;3.17;;